sensor_id;sensor_type;location;lat;lon;timestamp;P1;durP1;ratioP1;P2;durP2;ratioP2
7729;SDS011;3908;52.310;7.230;2023-02-04T00:00:28;25.30;;;5.17;;
7729;SDS011;3908;52.310;7.230;2023-02-04T00:03:15;22.50;;;5.17;;
7729;SDS011;3908;52.310;7.230;2023-02-04T00:06:03;34.17;;;6.20;;
7729;SDS011;3908;52.310;7.230;2023-02-04T00:08:50;32.37;;;5.80;;
7729;SDS011;3908;52.310;7.230;2023-02-04T00:11:37;31.47;;;5.67;;
7729;SDS011;3908;52.310;7.230;2023-02-04T00:14:24;20.80;;;4.20;;
7729;SDS011;3908;52.310;7.230;2023-02-04T00:17:12;27.13;;;5.57;;
7729;SDS011;3908;52.310;7.230;2023-02-04T00:19:59;27.57;;;5.80;;
7729;SDS011;3908;52.310;7.230;2023-02-04T00:22:46;24.33;;;3.97;;
7729;SDS011;3908;52.310;7.230;2023-02-04T00:25:33;27.67;;;5.47;;
7729;SDS011;3908;52.310;7.230;2023-02-04T00:28:20;27.20;;;4.90;;
7729;SDS011;3908;52.310;7.230;2023-02-04T00:31:07;38.10;;;5.77;;
7729;SDS011;3908;52.310;7.230;2023-02-04T00:33:56;27.10;;;4.97;;
7729;SDS011;3908;52.310;7.230;2023-02-04T00:36:44;37.00;;;5.40;;
7729;SDS011;3908;52.310;7.230;2023-02-04T00:39:31;31.33;;;5.03;;
7729;SDS011;3908;52.310;7.230;2023-02-04T00:42:18;28.40;;;5.50;;
7729;SDS011;3908;52.310;7.230;2023-02-04T00:45:05;33.13;;;6.13;;
7729;SDS011;3908;52.310;7.230;2023-02-04T00:47:52;27.23;;;5.90;;
7729;SDS011;3908;52.310;7.230;2023-02-04T00:50:43;34.10;;;5.80;;
7729;SDS011;3908;52.310;7.230;2023-02-04T00:53:30;29.93;;;5.53;;
7729;SDS011;3908;52.310;7.230;2023-02-04T00:56:17;32.27;;;4.63;;
7729;SDS011;3908;52.310;7.230;2023-02-04T00:59:04;32.70;;;5.43;;
7729;SDS011;3908;52.310;7.230;2023-02-04T01:01:51;25.50;;;4.90;;
7729;SDS011;3908;52.310;7.230;2023-02-04T01:04:38;26.53;;;4.77;;
7729;SDS011;3908;52.310;7.230;2023-02-04T01:07:26;35.87;;;6.40;;
7729;SDS011;3908;52.310;7.230;2023-02-04T01:10:13;36.77;;;5.93;;
7729;SDS011;3908;52.310;7.230;2023-02-04T01:13:02;35.33;;;5.63;;
7729;SDS011;3908;52.310;7.230;2023-02-04T01:15:49;31.90;;;4.90;;
7729;SDS011;3908;52.310;7.230;2023-02-04T01:18:36;34.60;;;6.27;;
7729;SDS011;3908;52.310;7.230;2023-02-04T01:21:24;39.03;;;6.97;;
7729;SDS011;3908;52.310;7.230;2023-02-04T01:24:13;30.37;;;6.10;;
7729;SDS011;3908;52.310;7.230;2023-02-04T01:27:00;26.13;;;5.63;;
7729;SDS011;3908;52.310;7.230;2023-02-04T01:29:47;28.43;;;4.67;;
7729;SDS011;3908;52.310;7.230;2023-02-04T01:32:34;30.63;;;5.43;;
7729;SDS011;3908;52.310;7.230;2023-02-04T01:35:21;36.63;;;5.73;;
7729;SDS011;3908;52.310;7.230;2023-02-04T01:38:08;34.27;;;5.43;;
7729;SDS011;3908;52.310;7.230;2023-02-04T01:40:56;25.00;;;5.47;;
7729;SDS011;3908;52.310;7.230;2023-02-04T01:43:44;36.83;;;5.07;;
7729;SDS011;3908;52.310;7.230;2023-02-04T01:46:31;28.80;;;4.23;;
7729;SDS011;3908;52.310;7.230;2023-02-04T01:49:21;31.67;;;4.90;;
7729;SDS011;3908;52.310;7.230;2023-02-04T01:52:09;29.23;;;5.73;;
7729;SDS011;3908;52.310;7.230;2023-02-04T01:54:57;25.93;;;5.40;;
7729;SDS011;3908;52.310;7.230;2023-02-04T01:57:46;27.20;;;5.00;;
7729;SDS011;3908;52.310;7.230;2023-02-04T02:00:35;26.77;;;5.10;;
7729;SDS011;3908;52.310;7.230;2023-02-04T02:03:23;27.50;;;5.47;;
7729;SDS011;3908;52.310;7.230;2023-02-04T02:06:10;30.57;;;4.33;;
7729;SDS011;3908;52.310;7.230;2023-02-04T02:08:57;35.93;;;5.43;;
7729;SDS011;3908;52.310;7.230;2023-02-04T02:11:45;29.40;;;6.87;;
7729;SDS011;3908;52.310;7.230;2023-02-04T02:14:34;28.37;;;4.97;;
7729;SDS011;3908;52.310;7.230;2023-02-04T02:17:21;23.17;;;4.23;;
7729;SDS011;3908;52.310;7.230;2023-02-04T02:20:08;36.37;;;5.43;;
7729;SDS011;3908;52.310;7.230;2023-02-04T02:23:00;31.70;;;4.87;;
7729;SDS011;3908;52.310;7.230;2023-02-04T02:25:52;31.13;;;5.53;;
7729;SDS011;3908;52.310;7.230;2023-02-04T02:28:39;31.43;;;5.63;;
7729;SDS011;3908;52.310;7.230;2023-02-04T02:31:27;29.07;;;5.50;;
7729;SDS011;3908;52.310;7.230;2023-02-04T02:34:14;26.90;;;5.07;;
7729;SDS011;3908;52.310;7.230;2023-02-04T02:37:01;28.07;;;4.03;;
7729;SDS011;3908;52.310;7.230;2023-02-04T02:39:49;21.03;;;4.40;;
7729;SDS011;3908;52.310;7.230;2023-02-04T02:42:38;33.40;;;5.03;;
7729;SDS011;3908;52.310;7.230;2023-02-04T02:45:27;29.70;;;4.63;;
7729;SDS011;3908;52.310;7.230;2023-02-04T02:48:15;26.07;;;6.70;;
7729;SDS011;3908;52.310;7.230;2023-02-04T02:51:03;23.57;;;4.57;;
7729;SDS011;3908;52.310;7.230;2023-02-04T02:53:50;24.53;;;5.33;;
7729;SDS011;3908;52.310;7.230;2023-02-04T02:56:37;22.57;;;4.87;;
7729;SDS011;3908;52.310;7.230;2023-02-04T02:59:26;21.60;;;4.90;;
7729;SDS011;3908;52.310;7.230;2023-02-04T03:05:39;27.10;;;4.80;;
7729;SDS011;3908;52.310;7.230;2023-02-04T03:08:28;32.53;;;5.77;;
7729;SDS011;3908;52.310;7.230;2023-02-04T03:11:15;30.70;;;5.90;;
7729;SDS011;3908;52.310;7.230;2023-02-04T03:14:02;24.67;;;4.63;;
7729;SDS011;3908;52.310;7.230;2023-02-04T03:16:52;25.63;;;5.13;;
7729;SDS011;3908;52.310;7.230;2023-02-04T03:19:41;42.93;;;5.47;;
7729;SDS011;3908;52.310;7.230;2023-02-04T03:22:28;37.73;;;5.37;;
7729;SDS011;3908;52.310;7.230;2023-02-04T03:25:16;37.43;;;6.67;;
7729;SDS011;3908;52.310;7.230;2023-02-04T03:28:05;30.33;;;5.43;;
7729;SDS011;3908;52.310;7.230;2023-02-04T03:30:52;30.30;;;4.70;;
7729;SDS011;3908;52.310;7.230;2023-02-04T03:33:41;31.47;;;5.67;;
7729;SDS011;3908;52.310;7.230;2023-02-04T03:36:28;26.23;;;4.57;;
7729;SDS011;3908;52.310;7.230;2023-02-04T03:39:15;24.63;;;4.10;;
7729;SDS011;3908;52.310;7.230;2023-02-04T03:42:02;37.87;;;5.17;;
7729;SDS011;3908;52.310;7.230;2023-02-04T03:44:49;27.37;;;4.93;;
7729;SDS011;3908;52.310;7.230;2023-02-04T03:47:36;26.20;;;4.77;;
7729;SDS011;3908;52.310;7.230;2023-02-04T03:50:25;28.40;;;5.07;;
7729;SDS011;3908;52.310;7.230;2023-02-04T03:53:12;24.93;;;5.43;;
7729;SDS011;3908;52.310;7.230;2023-02-04T03:55:59;24.70;;;4.43;;
7729;SDS011;3908;52.310;7.230;2023-02-04T03:58:46;34.83;;;5.83;;
7729;SDS011;3908;52.310;7.230;2023-02-04T04:01:33;30.63;;;4.97;;
7729;SDS011;3908;52.310;7.230;2023-02-04T04:04:20;34.27;;;5.70;;
7729;SDS011;3908;52.310;7.230;2023-02-04T04:07:10;29.60;;;5.67;;
7729;SDS011;3908;52.310;7.230;2023-02-04T04:09:57;26.17;;;5.13;;
7729;SDS011;3908;52.310;7.230;2023-02-04T04:12:44;30.53;;;6.33;;
7729;SDS011;3908;52.310;7.230;2023-02-04T04:15:31;28.63;;;4.97;;
7729;SDS011;3908;52.310;7.230;2023-02-04T04:18:18;43.23;;;5.90;;
7729;SDS011;3908;52.310;7.230;2023-02-04T04:21:05;32.57;;;5.37;;
7729;SDS011;3908;52.310;7.230;2023-02-04T04:23:54;32.67;;;4.83;;
7729;SDS011;3908;52.310;7.230;2023-02-04T04:26:41;34.03;;;5.83;;
7729;SDS011;3908;52.310;7.230;2023-02-04T04:29:28;32.13;;;5.33;;
7729;SDS011;3908;52.310;7.230;2023-02-04T04:32:15;33.20;;;5.50;;
7729;SDS011;3908;52.310;7.230;2023-02-04T04:35:02;35.07;;;5.63;;
7729;SDS011;3908;52.310;7.230;2023-02-04T04:37:49;36.73;;;5.97;;
7729;SDS011;3908;52.310;7.230;2023-02-04T04:40:37;29.70;;;5.47;;
7729;SDS011;3908;52.310;7.230;2023-02-04T04:43:24;28.90;;;5.67;;
7729;SDS011;3908;52.310;7.230;2023-02-04T04:46:11;17.33;;;4.10;;
7729;SDS011;3908;52.310;7.230;2023-02-04T04:48:58;23.53;;;5.23;;
7729;SDS011;3908;52.310;7.230;2023-02-04T04:51:45;25.70;;;4.63;;
7729;SDS011;3908;52.310;7.230;2023-02-04T04:54:32;35.77;;;6.00;;
7729;SDS011;3908;52.310;7.230;2023-02-04T04:57:21;31.27;;;5.57;;
7729;SDS011;3908;52.310;7.230;2023-02-04T05:00:09;27.60;;;5.10;;
7729;SDS011;3908;52.310;7.230;2023-02-04T05:03:02;39.53;;;5.27;;
7729;SDS011;3908;52.310;7.230;2023-02-04T05:05:49;41.57;;;5.83;;
7729;SDS011;3908;52.310;7.230;2023-02-04T05:08:36;37.90;;;5.70;;
7729;SDS011;3908;52.310;7.230;2023-02-04T05:11:23;32.07;;;5.47;;
7729;SDS011;3908;52.310;7.230;2023-02-04T05:14:12;30.00;;;4.57;;
7729;SDS011;3908;52.310;7.230;2023-02-04T05:16:59;19.47;;;4.57;;
7729;SDS011;3908;52.310;7.230;2023-02-04T05:19:46;26.37;;;5.03;;
7729;SDS011;3908;52.310;7.230;2023-02-04T05:22:33;30.23;;;6.77;;
7729;SDS011;3908;52.310;7.230;2023-02-04T05:25:20;24.70;;;5.10;;
7729;SDS011;3908;52.310;7.230;2023-02-04T05:28:07;32.83;;;5.37;;
7729;SDS011;3908;52.310;7.230;2023-02-04T05:30:56;24.47;;;4.23;;
7729;SDS011;3908;52.310;7.230;2023-02-04T05:33:43;25.80;;;5.17;;
7729;SDS011;3908;52.310;7.230;2023-02-04T05:36:30;23.83;;;6.00;;
7729;SDS011;3908;52.310;7.230;2023-02-04T05:39:17;21.77;;;4.77;;
7729;SDS011;3908;52.310;7.230;2023-02-04T05:42:04;30.53;;;6.30;;
7729;SDS011;3908;52.310;7.230;2023-02-04T05:44:51;32.00;;;5.57;;
7729;SDS011;3908;52.310;7.230;2023-02-04T05:47:39;28.87;;;5.17;;
7729;SDS011;3908;52.310;7.230;2023-02-04T05:50:26;19.37;;;4.93;;
7729;SDS011;3908;52.310;7.230;2023-02-04T05:53:13;24.20;;;5.53;;
7729;SDS011;3908;52.310;7.230;2023-02-04T05:56:04;23.70;;;4.37;;
7729;SDS011;3908;52.310;7.230;2023-02-04T05:58:51;24.93;;;5.37;;
7729;SDS011;3908;52.310;7.230;2023-02-04T06:01:38;27.50;;;4.93;;
7729;SDS011;3908;52.310;7.230;2023-02-04T06:04:26;21.80;;;4.30;;
7729;SDS011;3908;52.310;7.230;2023-02-04T06:07:13;24.63;;;4.50;;
7729;SDS011;3908;52.310;7.230;2023-02-04T06:10:00;33.50;;;5.77;;
7729;SDS011;3908;52.310;7.230;2023-02-04T06:12:47;26.07;;;5.03;;
7729;SDS011;3908;52.310;7.230;2023-02-04T06:15:34;24.50;;;4.50;;
7729;SDS011;3908;52.310;7.230;2023-02-04T06:18:21;40.40;;;6.07;;
7729;SDS011;3908;52.310;7.230;2023-02-04T06:21:10;28.67;;;5.37;;
7729;SDS011;3908;52.310;7.230;2023-02-04T06:23:57;31.07;;;4.60;;
7729;SDS011;3908;52.310;7.230;2023-02-04T06:26:44;26.77;;;5.63;;
7729;SDS011;3908;52.310;7.230;2023-02-04T06:29:31;33.13;;;5.67;;
7729;SDS011;3908;52.310;7.230;2023-02-04T06:32:18;26.07;;;4.53;;
7729;SDS011;3908;52.310;7.230;2023-02-04T06:35:06;29.47;;;4.97;;
7729;SDS011;3908;52.310;7.230;2023-02-04T06:37:55;26.53;;;4.13;;
7729;SDS011;3908;52.310;7.230;2023-02-04T06:40:42;27.87;;;4.97;;
7729;SDS011;3908;52.310;7.230;2023-02-04T06:43:29;29.80;;;6.10;;
7729;SDS011;3908;52.310;7.230;2023-02-04T06:46:16;28.63;;;4.87;;
7729;SDS011;3908;52.310;7.230;2023-02-04T06:49:03;39.03;;;6.60;;
7729;SDS011;3908;52.310;7.230;2023-02-04T06:51:50;30.17;;;5.77;;
7729;SDS011;3908;52.310;7.230;2023-02-04T06:54:38;26.27;;;5.50;;
7729;SDS011;3908;52.310;7.230;2023-02-04T06:57:25;32.17;;;4.87;;
7729;SDS011;3908;52.310;7.230;2023-02-04T07:00:12;24.83;;;5.83;;
7729;SDS011;3908;52.310;7.230;2023-02-04T07:03:00;20.23;;;4.10;;
7729;SDS011;3908;52.310;7.230;2023-02-04T07:05:47;29.77;;;5.77;;
7729;SDS011;3908;52.310;7.230;2023-02-04T07:08:35;32.07;;;6.77;;
7729;SDS011;3908;52.310;7.230;2023-02-04T07:11:23;32.57;;;5.37;;
7729;SDS011;3908;52.310;7.230;2023-02-04T07:14:10;40.20;;;6.40;;
7729;SDS011;3908;52.310;7.230;2023-02-04T07:16:57;27.20;;;4.50;;
7729;SDS011;3908;52.310;7.230;2023-02-04T07:19:44;36.63;;;5.27;;
7729;SDS011;3908;52.310;7.230;2023-02-04T07:22:32;33.37;;;5.63;;
7729;SDS011;3908;52.310;7.230;2023-02-04T07:25:19;20.90;;;5.17;;
7729;SDS011;3908;52.310;7.230;2023-02-04T07:28:07;29.00;;;5.60;;
7729;SDS011;3908;52.310;7.230;2023-02-04T07:30:54;27.57;;;5.17;;
7729;SDS011;3908;52.310;7.230;2023-02-04T07:33:41;27.47;;;5.17;;
7729;SDS011;3908;52.310;7.230;2023-02-04T07:36:28;29.90;;;5.33;;
7729;SDS011;3908;52.310;7.230;2023-02-04T07:39:15;31.27;;;5.80;;
7729;SDS011;3908;52.310;7.230;2023-02-04T07:42:03;26.73;;;4.83;;
7729;SDS011;3908;52.310;7.230;2023-02-04T07:44:52;24.27;;;4.40;;
7729;SDS011;3908;52.310;7.230;2023-02-04T07:47:39;27.67;;;3.57;;
7729;SDS011;3908;52.310;7.230;2023-02-04T07:50:26;28.43;;;4.33;;
7729;SDS011;3908;52.310;7.230;2023-02-04T07:53:13;25.80;;;3.50;;
7729;SDS011;3908;52.310;7.230;2023-02-04T07:56:00;13.13;;;3.50;;
7729;SDS011;3908;52.310;7.230;2023-02-04T07:58:46;20.43;;;3.80;;
7729;SDS011;3908;52.310;7.230;2023-02-04T08:01:35;15.43;;;2.93;;
7729;SDS011;3908;52.310;7.230;2023-02-04T08:04:22;12.77;;;2.77;;
7729;SDS011;3908;52.310;7.230;2023-02-04T08:07:09;15.40;;;3.20;;
7729;SDS011;3908;52.310;7.230;2023-02-04T08:09:56;14.33;;;2.90;;
7729;SDS011;3908;52.310;7.230;2023-02-04T08:12:43;22.07;;;3.17;;
7729;SDS011;3908;52.310;7.230;2023-02-04T08:15:30;13.27;;;2.77;;
7729;SDS011;3908;52.310;7.230;2023-02-04T08:18:18;14.27;;;2.90;;
7729;SDS011;3908;52.310;7.230;2023-02-04T08:21:05;12.83;;;2.73;;
7729;SDS011;3908;52.310;7.230;2023-02-04T08:23:52;13.93;;;2.43;;
7729;SDS011;3908;52.310;7.230;2023-02-04T08:26:39;12.57;;;3.47;;
7729;SDS011;3908;52.310;7.230;2023-02-04T08:31:45;12.33;;;3.30;;
7729;SDS011;3908;52.310;7.230;2023-02-04T08:33:28;14.77;;;3.13;;
7729;SDS011;3908;52.310;7.230;2023-02-04T08:36:15;11.90;;;3.00;;
7729;SDS011;3908;52.310;7.230;2023-02-04T08:39:02;16.80;;;3.13;;
7729;SDS011;3908;52.310;7.230;2023-02-04T08:41:49;11.70;;;3.20;;
7729;SDS011;3908;52.310;7.230;2023-02-04T08:44:36;6.93;;;2.37;;
7729;SDS011;3908;52.310;7.230;2023-02-04T08:47:23;13.63;;;4.50;;
7729;SDS011;3908;52.310;7.230;2023-02-04T08:50:12;9.17;;;2.23;;
7729;SDS011;3908;52.310;7.230;2023-02-04T08:53:05;8.57;;;2.57;;
7729;SDS011;3908;52.310;7.230;2023-02-04T08:55:54;11.47;;;2.57;;
7729;SDS011;3908;52.310;7.230;2023-02-04T08:58:41;8.90;;;2.73;;
7729;SDS011;3908;52.310;7.230;2023-02-04T09:01:28;12.30;;;2.70;;
7729;SDS011;3908;52.310;7.230;2023-02-04T09:04:15;7.70;;;2.10;;
7729;SDS011;3908;52.310;7.230;2023-02-04T09:07:03;4.83;;;2.50;;
7729;SDS011;3908;52.310;7.230;2023-02-04T09:09:50;10.47;;;2.70;;
7729;SDS011;3908;52.310;7.230;2023-02-04T09:12:37;5.77;;;2.10;;
7729;SDS011;3908;52.310;7.230;2023-02-04T09:15:24;9.93;;;2.57;;
7729;SDS011;3908;52.310;7.230;2023-02-04T09:18:12;5.10;;;2.07;;
7729;SDS011;3908;52.310;7.230;2023-02-04T09:21:01;11.07;;;2.50;;
7729;SDS011;3908;52.310;7.230;2023-02-04T09:23:49;11.17;;;2.20;;
7729;SDS011;3908;52.310;7.230;2023-02-04T09:26:36;7.67;;;2.40;;
7729;SDS011;3908;52.310;7.230;2023-02-04T09:29:23;10.83;;;2.10;;
7729;SDS011;3908;52.310;7.230;2023-02-04T09:32:10;10.50;;;2.33;;
7729;SDS011;3908;52.310;7.230;2023-02-04T09:34:57;6.63;;;2.23;;
7729;SDS011;3908;52.310;7.230;2023-02-04T09:37:44;8.30;;;2.20;;
7729;SDS011;3908;52.310;7.230;2023-02-04T09:40:33;10.23;;;3.23;;
7729;SDS011;3908;52.310;7.230;2023-02-04T09:43:23;7.73;;;2.73;;
7729;SDS011;3908;52.310;7.230;2023-02-04T09:46:15;10.10;;;2.70;;
7729;SDS011;3908;52.310;7.230;2023-02-04T09:49:07;8.90;;;2.87;;
7729;SDS011;3908;52.310;7.230;2023-02-04T09:51:56;15.47;;;3.30;;
7729;SDS011;3908;52.310;7.230;2023-02-04T09:54:44;10.80;;;3.20;;
7729;SDS011;3908;52.310;7.230;2023-02-04T09:57:32;13.13;;;3.80;;
7729;SDS011;3908;52.310;7.230;2023-02-04T10:00:20;8.53;;;2.47;;
7729;SDS011;3908;52.310;7.230;2023-02-04T10:03:11;9.87;;;2.30;;
7729;SDS011;3908;52.310;7.230;2023-02-04T10:06:02;5.07;;;1.87;;
7729;SDS011;3908;52.310;7.230;2023-02-04T10:08:49;15.90;;;2.37;;
7729;SDS011;3908;52.310;7.230;2023-02-04T10:11:37;8.03;;;2.00;;
7729;SDS011;3908;52.310;7.230;2023-02-04T10:14:27;9.60;;;2.33;;
7729;SDS011;3908;52.310;7.230;2023-02-04T10:17:15;10.90;;;2.47;;
7729;SDS011;3908;52.310;7.230;2023-02-04T10:20:10;5.70;;;2.00;;
7729;SDS011;3908;52.310;7.230;2023-02-04T10:22:58;9.37;;;2.00;;
7729;SDS011;3908;52.310;7.230;2023-02-04T10:25:49;5.67;;;3.03;;
7729;SDS011;3908;52.310;7.230;2023-02-04T10:28:36;6.13;;;2.27;;
7729;SDS011;3908;52.310;7.230;2023-02-04T10:31:28;9.70;;;2.20;;
7729;SDS011;3908;52.310;7.230;2023-02-04T10:34:18;8.53;;;2.43;;
7729;SDS011;3908;52.310;7.230;2023-02-04T10:37:11;11.67;;;3.00;;
7729;SDS011;3908;52.310;7.230;2023-02-04T10:40:04;3.57;;;2.10;;
7729;SDS011;3908;52.310;7.230;2023-02-04T10:42:52;12.03;;;2.00;;
7729;SDS011;3908;52.310;7.230;2023-02-04T10:45:42;9.07;;;2.13;;
7729;SDS011;3908;52.310;7.230;2023-02-04T10:48:39;7.93;;;2.93;;
7729;SDS011;3908;52.310;7.230;2023-02-04T10:51:27;8.33;;;1.87;;
7729;SDS011;3908;52.310;7.230;2023-02-04T10:54:14;6.63;;;2.60;;
7729;SDS011;3908;52.310;7.230;2023-02-04T10:57:17;8.60;;;3.00;;
7729;SDS011;3908;52.310;7.230;2023-02-04T11:00:15;65.30;;;24.83;;
7729;SDS011;3908;52.310;7.230;2023-02-04T11:03:10;16.37;;;3.63;;
7729;SDS011;3908;52.310;7.230;2023-02-04T11:06:04;10.07;;;3.40;;
7729;SDS011;3908;52.310;7.230;2023-02-04T11:08:56;12.10;;;3.40;;
7729;SDS011;3908;52.310;7.230;2023-02-04T11:11:45;14.10;;;3.13;;
7729;SDS011;3908;52.310;7.230;2023-02-04T11:14:33;9.93;;;3.43;;
7729;SDS011;3908;52.310;7.230;2023-02-04T11:17:27;11.63;;;3.17;;
7729;SDS011;3908;52.310;7.230;2023-02-04T11:20:28;7.37;;;2.73;;
7729;SDS011;3908;52.310;7.230;2023-02-04T11:27:03;14.57;;;3.03;;
7729;SDS011;3908;52.310;7.230;2023-02-04T11:30:03;6.57;;;2.83;;
7729;SDS011;3908;52.310;7.230;2023-02-04T11:32:55;10.30;;;2.80;;
7729;SDS011;3908;52.310;7.230;2023-02-04T11:35:56;8.73;;;2.43;;
7729;SDS011;3908;52.310;7.230;2023-02-04T11:38:48;9.77;;;2.43;;
7729;SDS011;3908;52.310;7.230;2023-02-04T11:41:35;8.83;;;2.30;;
7729;SDS011;3908;52.310;7.230;2023-02-04T11:44:24;6.37;;;2.73;;
7729;SDS011;3908;52.310;7.230;2023-02-04T11:47:12;8.00;;;2.57;;
7729;SDS011;3908;52.310;7.230;2023-02-04T11:50:00;8.13;;;2.97;;
7729;SDS011;3908;52.310;7.230;2023-02-04T11:52:49;8.73;;;2.23;;
7729;SDS011;3908;52.310;7.230;2023-02-04T11:55:42;11.17;;;2.73;;
7729;SDS011;3908;52.310;7.230;2023-02-04T11:58:30;6.57;;;2.30;;
7729;SDS011;3908;52.310;7.230;2023-02-04T12:01:19;10.53;;;2.83;;
7729;SDS011;3908;52.310;7.230;2023-02-04T12:04:24;9.67;;;2.67;;
7729;SDS011;3908;52.310;7.230;2023-02-04T12:07:30;9.20;;;2.47;;
7729;SDS011;3908;52.310;7.230;2023-02-04T12:10:32;12.57;;;2.80;;
7729;SDS011;3908;52.310;7.230;2023-02-04T12:13:21;10.73;;;2.73;;
7729;SDS011;3908;52.310;7.230;2023-02-04T12:16:13;12.90;;;2.87;;
7729;SDS011;3908;52.310;7.230;2023-02-04T12:19:05;11.17;;;2.63;;
7729;SDS011;3908;52.310;7.230;2023-02-04T12:21:53;12.97;;;2.80;;
7729;SDS011;3908;52.310;7.230;2023-02-04T12:24:41;17.30;;;2.63;;
7729;SDS011;3908;52.310;7.230;2023-02-04T12:27:28;9.13;;;2.70;;
7729;SDS011;3908;52.310;7.230;2023-02-04T12:30:15;10.07;;;2.53;;
7729;SDS011;3908;52.310;7.230;2023-02-04T12:33:02;8.00;;;2.80;;
7729;SDS011;3908;52.310;7.230;2023-02-04T12:35:51;5.33;;;2.40;;
7729;SDS011;3908;52.310;7.230;2023-02-04T12:38:38;12.83;;;2.87;;
7729;SDS011;3908;52.310;7.230;2023-02-04T12:41:26;8.63;;;2.40;;
7729;SDS011;3908;52.310;7.230;2023-02-04T12:44:12;9.13;;;3.07;;
7729;SDS011;3908;52.310;7.230;2023-02-04T12:47:01;7.47;;;2.87;;
7729;SDS011;3908;52.310;7.230;2023-02-04T12:49:48;8.47;;;2.47;;
7729;SDS011;3908;52.310;7.230;2023-02-04T12:52:37;6.40;;;2.87;;
7729;SDS011;3908;52.310;7.230;2023-02-04T12:55:25;9.10;;;2.47;;
7729;SDS011;3908;52.310;7.230;2023-02-04T12:58:13;14.47;;;3.10;;
7729;SDS011;3908;52.310;7.230;2023-02-04T13:01:00;8.83;;;2.83;;
7729;SDS011;3908;52.310;7.230;2023-02-04T13:03:47;10.70;;;2.50;;
7729;SDS011;3908;52.310;7.230;2023-02-04T13:06:34;9.33;;;2.77;;
7729;SDS011;3908;52.310;7.230;2023-02-04T13:09:23;8.60;;;2.50;;
7729;SDS011;3908;52.310;7.230;2023-02-04T13:12:11;13.53;;;3.13;;
7729;SDS011;3908;52.310;7.230;2023-02-04T13:14:58;7.87;;;3.27;;
7729;SDS011;3908;52.310;7.230;2023-02-04T13:17:46;9.57;;;3.27;;
7729;SDS011;3908;52.310;7.230;2023-02-04T13:20:33;10.23;;;3.10;;
7729;SDS011;3908;52.310;7.230;2023-02-04T13:23:23;9.40;;;2.80;;
7729;SDS011;3908;52.310;7.230;2023-02-04T13:26:13;9.70;;;3.10;;
7729;SDS011;3908;52.310;7.230;2023-02-04T13:29:00;5.20;;;2.57;;
7729;SDS011;3908;52.310;7.230;2023-02-04T13:31:47;9.97;;;2.20;;
7729;SDS011;3908;52.310;7.230;2023-02-04T13:34:35;8.43;;;2.50;;
7729;SDS011;3908;52.310;7.230;2023-02-04T13:37:22;6.83;;;2.63;;
7729;SDS011;3908;52.310;7.230;2023-02-04T13:40:09;6.87;;;2.53;;
7729;SDS011;3908;52.310;7.230;2023-02-04T13:42:59;15.20;;;3.97;;
7729;SDS011;3908;52.310;7.230;2023-02-04T13:45:49;7.57;;;2.70;;
7729;SDS011;3908;52.310;7.230;2023-02-04T13:48:35;8.70;;;3.23;;
7729;SDS011;3908;52.310;7.230;2023-02-04T13:51:23;11.13;;;3.07;;
7729;SDS011;3908;52.310;7.230;2023-02-04T13:54:10;10.60;;;3.33;;
7729;SDS011;3908;52.310;7.230;2023-02-04T13:57:02;10.10;;;3.47;;
7729;SDS011;3908;52.310;7.230;2023-02-04T13:59:51;6.63;;;2.90;;
7729;SDS011;3908;52.310;7.230;2023-02-04T14:02:38;4.70;;;2.60;;
7729;SDS011;3908;52.310;7.230;2023-02-04T14:05:25;8.83;;;3.00;;
7729;SDS011;3908;52.310;7.230;2023-02-04T14:08:12;7.63;;;3.20;;
7729;SDS011;3908;52.310;7.230;2023-02-04T14:10:59;9.60;;;3.03;;
7729;SDS011;3908;52.310;7.230;2023-02-04T14:13:46;8.20;;;2.83;;
7729;SDS011;3908;52.310;7.230;2023-02-04T14:16:36;9.90;;;2.80;;
7729;SDS011;3908;52.310;7.230;2023-02-04T14:19:23;12.53;;;3.80;;
7729;SDS011;3908;52.310;7.230;2023-02-04T14:22:12;10.37;;;3.23;;
7729;SDS011;3908;52.310;7.230;2023-02-04T14:24:59;7.73;;;2.90;;
7729;SDS011;3908;52.310;7.230;2023-02-04T14:27:46;11.33;;;3.27;;
7729;SDS011;3908;52.310;7.230;2023-02-04T14:30:36;8.67;;;3.20;;
7729;SDS011;3908;52.310;7.230;2023-02-04T14:33:24;7.13;;;3.23;;
7729;SDS011;3908;52.310;7.230;2023-02-04T14:36:11;5.37;;;2.87;;
7729;SDS011;3908;52.310;7.230;2023-02-04T14:38:58;3.60;;;2.60;;
7729;SDS011;3908;52.310;7.230;2023-02-04T14:41:45;9.20;;;3.30;;
7729;SDS011;3908;52.310;7.230;2023-02-04T14:44:33;6.33;;;3.70;;
7729;SDS011;3908;52.310;7.230;2023-02-04T14:47:21;7.37;;;3.20;;
7729;SDS011;3908;52.310;7.230;2023-02-04T14:50:12;7.40;;;2.80;;
7729;SDS011;3908;52.310;7.230;2023-02-04T14:53:00;9.07;;;2.87;;
7729;SDS011;3908;52.310;7.230;2023-02-04T14:55:47;5.70;;;3.03;;
7729;SDS011;3908;52.310;7.230;2023-02-04T14:58:34;8.77;;;3.10;;
7729;SDS011;3908;52.310;7.230;2023-02-04T15:01:21;5.73;;;2.70;;
7729;SDS011;3908;52.310;7.230;2023-02-04T15:04:10;11.27;;;2.80;;
7729;SDS011;3908;52.310;7.230;2023-02-04T15:07:01;11.50;;;3.50;;
7729;SDS011;3908;52.310;7.230;2023-02-04T15:09:48;8.10;;;2.90;;
7729;SDS011;3908;52.310;7.230;2023-02-04T15:12:36;7.87;;;2.67;;
7729;SDS011;3908;52.310;7.230;2023-02-04T15:15:23;9.67;;;2.70;;
7729;SDS011;3908;52.310;7.230;2023-02-04T15:18:12;5.07;;;2.60;;
7729;SDS011;3908;52.310;7.230;2023-02-04T15:21:01;8.30;;;2.73;;
7729;SDS011;3908;52.310;7.230;2023-02-04T15:23:50;10.03;;;3.00;;
7729;SDS011;3908;52.310;7.230;2023-02-04T15:26:37;6.17;;;2.67;;
7729;SDS011;3908;52.310;7.230;2023-02-04T15:29:24;10.57;;;3.67;;
7729;SDS011;3908;52.310;7.230;2023-02-04T15:32:12;10.93;;;3.13;;
7729;SDS011;3908;52.310;7.230;2023-02-04T15:34:59;11.83;;;3.50;;
7729;SDS011;3908;52.310;7.230;2023-02-04T15:37:46;9.57;;;2.93;;
7729;SDS011;3908;52.310;7.230;2023-02-04T15:40:35;10.87;;;3.33;;
7729;SDS011;3908;52.310;7.230;2023-02-04T15:43:22;6.67;;;3.00;;
7729;SDS011;3908;52.310;7.230;2023-02-04T15:46:09;5.70;;;2.50;;
7729;SDS011;3908;52.310;7.230;2023-02-04T15:48:56;8.87;;;3.17;;
7729;SDS011;3908;52.310;7.230;2023-02-04T15:51:45;5.87;;;2.60;;
7729;SDS011;3908;52.310;7.230;2023-02-04T15:54:32;8.27;;;2.67;;
7729;SDS011;3908;52.310;7.230;2023-02-04T15:57:20;7.20;;;2.83;;
7729;SDS011;3908;52.310;7.230;2023-02-04T16:00:08;7.10;;;2.63;;
7729;SDS011;3908;52.310;7.230;2023-02-04T16:02:56;7.60;;;2.40;;
7729;SDS011;3908;52.310;7.230;2023-02-04T16:05:43;7.67;;;3.07;;
7729;SDS011;3908;52.310;7.230;2023-02-04T16:08:31;6.27;;;2.83;;
7729;SDS011;3908;52.310;7.230;2023-02-04T16:11:19;9.23;;;3.87;;
7729;SDS011;3908;52.310;7.230;2023-02-04T16:14:07;6.40;;;2.67;;
7729;SDS011;3908;52.310;7.230;2023-02-04T16:16:54;4.63;;;2.60;;
7729;SDS011;3908;52.310;7.230;2023-02-04T16:19:41;6.87;;;2.77;;
7729;SDS011;3908;52.310;7.230;2023-02-04T16:22:29;7.53;;;3.00;;
7729;SDS011;3908;52.310;7.230;2023-02-04T16:25:19;10.73;;;3.33;;
7729;SDS011;3908;52.310;7.230;2023-02-04T16:28:12;5.67;;;2.80;;
7729;SDS011;3908;52.310;7.230;2023-02-04T16:31:01;7.10;;;2.77;;
7729;SDS011;3908;52.310;7.230;2023-02-04T16:33:48;5.20;;;2.67;;
7729;SDS011;3908;52.310;7.230;2023-02-04T16:36:35;7.63;;;3.33;;
7729;SDS011;3908;52.310;7.230;2023-02-04T16:39:22;9.40;;;3.00;;
7729;SDS011;3908;52.310;7.230;2023-02-04T16:42:09;8.40;;;3.20;;
7729;SDS011;3908;52.310;7.230;2023-02-04T16:44:57;9.37;;;4.33;;
7729;SDS011;3908;52.310;7.230;2023-02-04T16:47:45;8.83;;;2.93;;
7729;SDS011;3908;52.310;7.230;2023-02-04T16:50:32;13.80;;;3.10;;
7729;SDS011;3908;52.310;7.230;2023-02-04T16:53:20;5.50;;;2.87;;
7729;SDS011;3908;52.310;7.230;2023-02-04T16:56:07;7.90;;;2.80;;
7729;SDS011;3908;52.310;7.230;2023-02-04T16:58:54;10.53;;;3.20;;
7729;SDS011;3908;52.310;7.230;2023-02-04T17:01:41;9.43;;;3.13;;
7729;SDS011;3908;52.310;7.230;2023-02-04T17:04:29;3.90;;;2.40;;
7729;SDS011;3908;52.310;7.230;2023-02-04T17:07:19;8.70;;;2.90;;
7729;SDS011;3908;52.310;7.230;2023-02-04T17:10:09;6.63;;;2.67;;
7729;SDS011;3908;52.310;7.230;2023-02-04T17:12:56;7.10;;;2.77;;
7729;SDS011;3908;52.310;7.230;2023-02-04T17:15:46;6.57;;;3.40;;
7729;SDS011;3908;52.310;7.230;2023-02-04T17:18:33;6.07;;;2.83;;
7729;SDS011;3908;52.310;7.230;2023-02-04T17:21:21;4.73;;;2.30;;